sensor_id;sensor_type;location;lat;lon;timestamp;P1;durP1;ratioP1;P2;durP2;ratioP2
59702;SDS011;45570;48.782;8.332;2022-11-13T09:57:55;14.68;;;11.27;;
59702;SDS011;45570;48.782;8.332;2022-11-13T10:00:47;14.25;;;11.13;;
59702;SDS011;45570;48.782;8.332;2022-11-13T10:03:35;16.80;;;11.25;;
59702;SDS011;45570;48.782;8.332;2022-11-13T10:06:59;13.13;;;10.45;;
59702;SDS011;45570;48.782;8.332;2022-11-13T10:10:01;15.30;;;11.30;;
59702;SDS011;45570;48.782;8.332;2022-11-13T10:13:03;17.95;;;12.93;;
59702;SDS011;45570;48.782;8.332;2022-11-13T10:15:58;17.15;;;13.20;;
59702;SDS011;45570;48.782;8.332;2022-11-13T10:18:51;18.48;;;13.35;;
59702;SDS011;45570;48.782;8.332;2022-11-13T10:21:47;19.95;;;14.32;;
59702;SDS011;45570;48.782;8.332;2022-11-13T10:24:51;16.75;;;12.13;;
59702;SDS011;45570;48.782;8.332;2022-11-13T10:27:49;17.85;;;12.52;;
59702;SDS011;45570;48.782;8.332;2022-11-13T10:30:41;19.20;;;14.00;;
59702;SDS011;45570;48.782;8.332;2022-11-13T10:33:28;16.88;;;12.27;;
59702;SDS011;45570;48.782;8.332;2022-11-13T10:36:18;19.33;;;14.40;;
59702;SDS011;45570;48.782;8.332;2022-11-13T10:39:11;17.38;;;12.77;;
59702;SDS011;45570;48.782;8.332;2022-11-13T10:41:59;18.80;;;12.90;;
59702;SDS011;45570;48.782;8.332;2022-11-13T10:44:51;16.58;;;12.50;;
59702;SDS011;45570;48.782;8.332;2022-11-13T10:47:45;17.83;;;13.40;;
59702;SDS011;45570;48.782;8.332;2022-11-13T10:50:52;18.95;;;13.98;;
59702;SDS011;45570;48.782;8.332;2022-11-13T10:53:41;15.90;;;13.02;;
59702;SDS011;45570;48.782;8.332;2022-11-13T10:56:29;14.48;;;11.57;;
59702;SDS011;45570;48.782;8.332;2022-11-13T10:59:17;14.40;;;11.63;;
59702;SDS011;45570;48.782;8.332;2022-11-13T11:05:17;13.90;;;11.00;;
59702;SDS011;45570;48.782;8.332;2022-11-13T11:08:07;14.15;;;10.40;;
59702;SDS011;45570;48.782;8.332;2022-11-13T11:10:56;13.57;;;10.02;;
59702;SDS011;45570;48.782;8.332;2022-11-13T11:14:03;10.93;;;9.15;;
59702;SDS011;45570;48.782;8.332;2022-11-13T11:16:56;12.63;;;9.77;;
59702;SDS011;45570;48.782;8.332;2022-11-13T11:19:49;10.57;;;8.93;;
59702;SDS011;45570;48.782;8.332;2022-11-13T11:22:44;10.77;;;8.68;;
59702;SDS011;45570;48.782;8.332;2022-11-13T11:25:35;11.85;;;8.35;;
59702;SDS011;45570;48.782;8.332;2022-11-13T11:28:29;9.27;;;7.75;;
59702;SDS011;45570;48.782;8.332;2022-11-13T11:31:20;11.52;;;8.68;;
59702;SDS011;45570;48.782;8.332;2022-11-13T11:34:13;11.05;;;8.93;;
59702;SDS011;45570;48.782;8.332;2022-11-13T11:37:05;9.60;;;8.60;;
59702;SDS011;45570;48.782;8.332;2022-11-13T11:40:02;13.43;;;9.30;;
59702;SDS011;45570;48.782;8.332;2022-11-13T11:42:54;10.65;;;9.55;;
59702;SDS011;45570;48.782;8.332;2022-11-13T11:45:49;10.40;;;9.05;;
59702;SDS011;45570;48.782;8.332;2022-11-13T11:48:36;10.43;;;9.23;;
59702;SDS011;45570;48.782;8.332;2022-11-13T11:51:24;10.20;;;8.93;;
59702;SDS011;45570;48.782;8.332;2022-11-13T11:54:18;9.57;;;8.57;;
59702;SDS011;45570;48.782;8.332;2022-11-13T11:57:20;10.45;;;8.65;;
59702;SDS011;45570;48.782;8.332;2022-11-13T12:00:17;9.90;;;8.82;;
59702;SDS011;45570;48.782;8.332;2022-11-13T12:03:19;9.95;;;8.80;;
59702;SDS011;45570;48.782;8.332;2022-11-13T12:06:21;10.20;;;9.13;;
59702;SDS011;45570;48.782;8.332;2022-11-13T12:09:16;9.50;;;8.02;;
59702;SDS011;45570;48.782;8.332;2022-11-13T12:12:11;9.98;;;8.55;;
59702;SDS011;45570;48.782;8.332;2022-11-13T12:15:09;8.77;;;7.97;;
59702;SDS011;45570;48.782;8.332;2022-11-13T12:18:13;8.55;;;7.75;;
59702;SDS011;45570;48.782;8.332;2022-11-13T12:21:07;8.20;;;7.40;;
59702;SDS011;45570;48.782;8.332;2022-11-13T12:27:28;9.60;;;8.70;;
59702;SDS011;45570;48.782;8.332;2022-11-13T12:30:22;10.63;;;8.88;;
59702;SDS011;45570;48.782;8.332;2022-11-13T12:33:23;9.45;;;8.45;;
59702;SDS011;45570;48.782;8.332;2022-11-13T12:36:19;10.70;;;8.45;;
59702;SDS011;45570;48.782;8.332;2022-11-13T12:39:21;10.07;;;9.07;;
59702;SDS011;45570;48.782;8.332;2022-11-13T12:42:25;13.30;;;9.32;;
59702;SDS011;45570;48.782;8.332;2022-11-13T12:45:19;9.93;;;8.93;;
59702;SDS011;45570;48.782;8.332;2022-11-13T12:48:20;9.05;;;8.15;;
59702;SDS011;45570;48.782;8.332;2022-11-13T12:51:14;12.45;;;8.45;;
59702;SDS011;45570;48.782;8.332;2022-11-13T12:54:02;8.88;;;7.85;;
59702;SDS011;45570;48.782;8.332;2022-11-13T12:56:50;7.97;;;7.18;;
59702;SDS011;45570;48.782;8.332;2022-11-13T12:59:38;8.43;;;7.53;;
59702;SDS011;45570;48.782;8.332;2022-11-13T13:05:52;8.25;;;7.40;;
59702;SDS011;45570;48.782;8.332;2022-11-13T13:08:55;7.43;;;6.72;;
59702;SDS011;45570;48.782;8.332;2022-11-13T13:11:53;8.40;;;7.60;;
59702;SDS011;45570;48.782;8.332;2022-11-13T13:15:03;9.38;;;8.23;;
59702;SDS011;45570;48.782;8.332;2022-11-13T13:18:04;8.90;;;7.35;;
59702;SDS011;45570;48.782;8.332;2022-11-13T13:21:00;9.35;;;7.72;;
59702;SDS011;45570;48.782;8.332;2022-11-13T13:23:51;8.50;;;7.60;;
59702;SDS011;45570;48.782;8.332;2022-11-13T13:26:43;8.52;;;7.55;;
59702;SDS011;45570;48.782;8.332;2022-11-13T13:29:32;11.73;;;8.43;;
59702;SDS011;45570;48.782;8.332;2022-11-13T13:32:20;9.52;;;8.55;;
59702;SDS011;45570;48.782;8.332;2022-11-13T13:35:13;8.88;;;7.97;;
59702;SDS011;45570;48.782;8.332;2022-11-13T13:38:04;8.68;;;7.82;;
59702;SDS011;45570;48.782;8.332;2022-11-13T13:41:17;11.35;;;7.78;;
59702;SDS011;45570;48.782;8.332;2022-11-13T13:47:24;8.48;;;7.60;;
59702;SDS011;45570;48.782;8.332;2022-11-13T13:50:16;9.77;;;7.80;;
59702;SDS011;45570;48.782;8.332;2022-11-13T13:53:06;7.80;;;7.00;;
59702;SDS011;45570;48.782;8.332;2022-11-13T13:55:57;7.78;;;7.07;;
59702;SDS011;45570;48.782;8.332;2022-11-13T13:58:44;8.35;;;7.30;;
59702;SDS011;45570;48.782;8.332;2022-11-13T14:01:33;7.88;;;7.18;;
59702;SDS011;45570;48.782;8.332;2022-11-13T14:04:21;7.55;;;6.85;;
59702;SDS011;45570;48.782;8.332;2022-11-13T14:07:19;7.68;;;6.97;;
59702;SDS011;45570;48.782;8.332;2022-11-13T14:10:13;10.23;;;7.13;;
59702;SDS011;45570;48.782;8.332;2022-11-13T14:13:01;8.77;;;7.63;;
59702;SDS011;45570;48.782;8.332;2022-11-13T14:15:58;7.43;;;6.70;;
59702;SDS011;45570;48.782;8.332;2022-11-13T14:18:47;7.72;;;7.00;;
59702;SDS011;45570;48.782;8.332;2022-11-13T14:21:34;7.60;;;6.80;;
